sensor_id;sensor_type;location;lat;lon;timestamp;P1;durP1;ratioP1;P2;durP2;ratioP2
60088;SDS011;45961;53.574;55.878;2022-10-16T04:44:40;6.70;;;4.28;;
60088;SDS011;45961;53.574;55.878;2022-10-16T04:45:42;6.60;;;4.00;;
60088;SDS011;45961;53.574;55.878;2022-10-16T04:46:43;5.80;;;4.07;;
60088;SDS011;45961;53.574;55.878;2022-10-16T04:48:45;6.88;;;4.63;;
60088;SDS011;45961;53.574;55.878;2022-10-16T04:49:48;9.18;;;4.95;;
60088;SDS011;45961;53.574;55.878;2022-10-16T04:50:49;8.35;;;4.32;;
60088;SDS011;45961;53.574;55.878;2022-10-16T04:51:53;5.20;;;3.63;;
60088;SDS011;45961;53.574;55.878;2022-10-16T04:52:54;6.70;;;4.65;;
60088;SDS011;45961;53.574;55.878;2022-10-16T04:53:55;5.35;;;4.18;;
60088;SDS011;45961;53.574;55.878;2022-10-16T04:54:57;5.50;;;4.30;;
60088;SDS011;45961;53.574;55.878;2022-10-16T04:56:01;5.05;;;3.90;;
60088;SDS011;45961;53.574;55.878;2022-10-16T04:57:02;5.57;;;4.13;;
60088;SDS011;45961;53.574;55.878;2022-10-16T04:58:05;5.85;;;4.90;;
60088;SDS011;45961;53.574;55.878;2022-10-16T04:59:09;5.15;;;3.53;;
60088;SDS011;45961;53.574;55.878;2022-10-16T05:00:10;6.40;;;3.97;;
60088;SDS011;45961;53.574;55.878;2022-10-16T05:02:12;4.97;;;3.85;;
60088;SDS011;45961;53.574;55.878;2022-10-16T05:03:13;5.03;;;4.53;;
60088;SDS011;45961;53.574;55.878;2022-10-16T05:04:14;5.03;;;4.25;;
60088;SDS011;45961;53.574;55.878;2022-10-16T05:05:18;5.93;;;4.15;;
60088;SDS011;45961;53.574;55.878;2022-10-16T05:06:22;5.45;;;4.20;;
60088;SDS011;45961;53.574;55.878;2022-10-16T05:07:23;5.00;;;4.32;;
60088;SDS011;45961;53.574;55.878;2022-10-16T05:08:24;6.18;;;4.75;;
60088;SDS011;45961;53.574;55.878;2022-10-16T05:09:25;4.82;;;3.70;;
60088;SDS011;45961;53.574;55.878;2022-10-16T05:10:26;4.20;;;3.17;;
60088;SDS011;45961;53.574;55.878;2022-10-16T05:12:28;5.70;;;3.95;;
60088;SDS011;45961;53.574;55.878;2022-10-16T05:13:30;5.90;;;3.55;;
60088;SDS011;45961;53.574;55.878;2022-10-16T05:14:31;5.90;;;4.45;;
60088;SDS011;45961;53.574;55.878;2022-10-16T05:15:34;4.95;;;3.78;;
60088;SDS011;45961;53.574;55.878;2022-10-16T05:16:35;5.43;;;4.20;;
60088;SDS011;45961;53.574;55.878;2022-10-16T05:17:36;5.25;;;3.65;;
60088;SDS011;45961;53.574;55.878;2022-10-16T05:18:43;5.38;;;4.40;;
60088;SDS011;45961;53.574;55.878;2022-10-16T05:19:43;6.28;;;4.55;;
60088;SDS011;45961;53.574;55.878;2022-10-16T05:20:44;5.10;;;4.10;;
60088;SDS011;45961;53.574;55.878;2022-10-16T05:21:45;5.13;;;3.58;;
60088;SDS011;45961;53.574;55.878;2022-10-16T05:22:47;4.93;;;3.75;;
60088;SDS011;45961;53.574;55.878;2022-10-16T05:23:48;4.93;;;3.90;;
60088;SDS011;45961;53.574;55.878;2022-10-16T05:24:49;5.60;;;4.13;;
60088;SDS011;45961;53.574;55.878;2022-10-16T05:25:53;5.43;;;3.67;;
60088;SDS011;45961;53.574;55.878;2022-10-16T05:26:58;4.97;;;3.95;;
60088;SDS011;45961;53.574;55.878;2022-10-16T05:27:59;5.85;;;3.67;;
60088;SDS011;45961;53.574;55.878;2022-10-16T05:29:00;6.20;;;4.15;;
60088;SDS011;45961;53.574;55.878;2022-10-16T05:30:01;5.18;;;3.92;;
60088;SDS011;45961;53.574;55.878;2022-10-16T05:31:04;5.05;;;3.70;;
60088;SDS011;45961;53.574;55.878;2022-10-16T05:32:09;6.13;;;4.00;;
60088;SDS011;45961;53.574;55.878;2022-10-16T05:33:10;5.93;;;3.88;;
60088;SDS011;45961;53.574;55.878;2022-10-16T05:34:13;5.80;;;3.80;;
60088;SDS011;45961;53.574;55.878;2022-10-16T05:35:14;4.55;;;3.67;;
60088;SDS011;45961;53.574;55.878;2022-10-16T05:36:15;4.65;;;3.30;;
60088;SDS011;45961;53.574;55.878;2022-10-16T05:37:36;6.38;;;3.97;;
60088;SDS011;45961;53.574;55.878;2022-10-16T05:38:37;5.50;;;3.70;;
60088;SDS011;45961;53.574;55.878;2022-10-16T05:39:38;4.20;;;3.58;;
60088;SDS011;45961;53.574;55.878;2022-10-16T05:40:39;4.43;;;3.83;;
60088;SDS011;45961;53.574;55.878;2022-10-16T05:41:40;4.10;;;3.50;;
60088;SDS011;45961;53.574;55.878;2022-10-16T05:42:41;5.22;;;3.88;;
60088;SDS011;45961;53.574;55.878;2022-10-16T05:43:46;3.90;;;3.42;;
60088;SDS011;45961;53.574;55.878;2022-10-16T05:45:57;5.03;;;3.38;;
60088;SDS011;45961;53.574;55.878;2022-10-16T05:46:59;4.32;;;3.38;;
60088;SDS011;45961;53.574;55.878;2022-10-16T05:48:03;4.97;;;3.30;;
60088;SDS011;45961;53.574;55.878;2022-10-16T05:50:05;4.72;;;3.65;;
60088;SDS011;45961;53.574;55.878;2022-10-16T05:51:08;4.32;;;3.50;;
60088;SDS011;45961;53.574;55.878;2022-10-16T05:52:11;4.07;;;3.42;;
60088;SDS011;45961;53.574;55.878;2022-10-16T05:53:12;4.93;;;3.70;;
60088;SDS011;45961;53.574;55.878;2022-10-16T05:54:13;4.78;;;3.67;;
60088;SDS011;45961;53.574;55.878;2022-10-16T05:55:14;4.95;;;4.07;;
60088;SDS011;45961;53.574;55.878;2022-10-16T05:56:15;6.65;;;4.05;;
60088;SDS011;45961;53.574;55.878;2022-10-16T05:57:19;4.57;;;3.90;;
60088;SDS011;45961;53.574;55.878;2022-10-16T05:58:20;4.95;;;3.83;;
60088;SDS011;45961;53.574;55.878;2022-10-16T05:59:22;5.68;;;4.22;;
60088;SDS011;45961;53.574;55.878;2022-10-16T06:00:23;6.38;;;3.95;;
60088;SDS011;45961;53.574;55.878;2022-10-16T06:01:24;5.55;;;3.83;;
60088;SDS011;45961;53.574;55.878;2022-10-16T06:02:25;4.57;;;3.60;;
60088;SDS011;45961;53.574;55.878;2022-10-16T06:03:26;5.35;;;3.80;;
60088;SDS011;45961;53.574;55.878;2022-10-16T06:04:30;4.20;;;3.80;;
60088;SDS011;45961;53.574;55.878;2022-10-16T06:05:31;5.45;;;3.55;;
60088;SDS011;45961;53.574;55.878;2022-10-16T06:06:32;6.85;;;4.05;;
60088;SDS011;45961;53.574;55.878;2022-10-16T06:07:34;4.40;;;4.00;;
60088;SDS011;45961;53.574;55.878;2022-10-16T06:08:36;4.32;;;3.47;;
60088;SDS011;45961;53.574;55.878;2022-10-16T06:09:37;4.47;;;3.88;;
60088;SDS011;45961;53.574;55.878;2022-10-16T06:10:41;4.70;;;3.88;;
60088;SDS011;45961;53.574;55.878;2022-10-16T06:11:42;6.38;;;4.78;;
60088;SDS011;45961;53.574;55.878;2022-10-16T06:12:43;4.47;;;3.90;;
60088;SDS011;45961;53.574;55.878;2022-10-16T06:13:44;4.45;;;4.05;;
60088;SDS011;45961;53.574;55.878;2022-10-16T06:14:52;7.65;;;4.85;;
60088;SDS011;45961;53.574;55.878;2022-10-16T06:17:00;4.70;;;3.92;;
60088;SDS011;45961;53.574;55.878;2022-10-16T06:18:01;4.35;;;3.45;;
60088;SDS011;45961;53.574;55.878;2022-10-16T06:19:03;4.15;;;3.78;;
60088;SDS011;45961;53.574;55.878;2022-10-16T06:20:06;4.32;;;3.70;;
60088;SDS011;45961;53.574;55.878;2022-10-16T06:21:14;4.32;;;3.90;;
60088;SDS011;45961;53.574;55.878;2022-10-16T06:22:17;5.32;;;3.67;;
60088;SDS011;45961;53.574;55.878;2022-10-16T06:23:18;4.63;;;3.30;;
60088;SDS011;45961;53.574;55.878;2022-10-16T06:24:19;4.93;;;3.47;;
60088;SDS011;45961;53.574;55.878;2022-10-16T06:25:23;4.90;;;3.83;;
60088;SDS011;45961;53.574;55.878;2022-10-16T06:26:27;5.38;;;3.33;;
60088;SDS011;45961;53.574;55.878;2022-10-16T06:27:29;4.07;;;3.40;;
60088;SDS011;45961;53.574;55.878;2022-10-16T06:28:30;4.25;;;3.85;;
60088;SDS011;45961;53.574;55.878;2022-10-16T06:29:31;3.92;;;3.53;;
60088;SDS011;45961;53.574;55.878;2022-10-16T06:30:33;4.97;;;3.50;;
60088;SDS011;45961;53.574;55.878;2022-10-16T06:31:34;4.50;;;3.85;;
60088;SDS011;45961;53.574;55.878;2022-10-16T06:32:35;4.57;;;3.60;;
60088;SDS011;45961;53.574;55.878;2022-10-16T06:33:37;4.60;;;4.20;;
60088;SDS011;45961;53.574;55.878;2022-10-16T06:34:39;5.47;;;4.13;;
60088;SDS011;45961;53.574;55.878;2022-10-16T06:35:41;4.22;;;3.42;;
60088;SDS011;45961;53.574;55.878;2022-10-16T06:36:42;4.07;;;3.65;;
60088;SDS011;45961;53.574;55.878;2022-10-16T06:37:43;5.53;;;3.63;;
60088;SDS011;45961;53.574;55.878;2022-10-16T06:38:44;4.47;;;3.88;;
60088;SDS011;45961;53.574;55.878;2022-10-16T06:39:46;5.07;;;3.97;;
60088;SDS011;45961;53.574;55.878;2022-10-16T06:40:47;4.32;;;3.67;;
60088;SDS011;45961;53.574;55.878;2022-10-16T06:41:49;6.82;;;4.22;;
60088;SDS011;45961;53.574;55.878;2022-10-16T06:42:49;5.28;;;4.28;;
60088;SDS011;45961;53.574;55.878;2022-10-16T06:43:52;5.95;;;4.90;;
60088;SDS011;45961;53.574;55.878;2022-10-16T06:44:53;5.15;;;4.65;;
60088;SDS011;45961;53.574;55.878;2022-10-16T06:45:55;4.50;;;4.03;;
60088;SDS011;45961;53.574;55.878;2022-10-16T06:47:00;5.88;;;4.38;;
60088;SDS011;45961;53.574;55.878;2022-10-16T06:48:01;6.70;;;4.80;;
60088;SDS011;45961;53.574;55.878;2022-10-16T06:49:02;5.22;;;4.28;;
60088;SDS011;45961;53.574;55.878;2022-10-16T06:50:03;5.97;;;3.80;;
60088;SDS011;45961;53.574;55.878;2022-10-16T06:51:09;4.85;;;4.13;;
60088;SDS011;45961;53.574;55.878;2022-10-16T06:52:12;5.18;;;3.75;;
60088;SDS011;45961;53.574;55.878;2022-10-16T06:53:13;5.25;;;4.30;;
60088;SDS011;45961;53.574;55.878;2022-10-16T06:54:34;5.03;;;3.97;;
60088;SDS011;45961;53.574;55.878;2022-10-16T06:55:35;5.00;;;3.35;;
60088;SDS011;45961;53.574;55.878;2022-10-16T06:56:36;3.95;;;3.25;;
60088;SDS011;45961;53.574;55.878;2022-10-16T06:58:38;5.65;;;4.38;;
60088;SDS011;45961;53.574;55.878;2022-10-16T06:59:43;6.35;;;4.43;;
60088;SDS011;45961;53.574;55.878;2022-10-16T07:01:48;4.13;;;3.42;;
60088;SDS011;45961;53.574;55.878;2022-10-16T07:02:49;5.97;;;3.45;;
60088;SDS011;45961;53.574;55.878;2022-10-16T07:03:52;4.32;;;3.78;;
60088;SDS011;45961;53.574;55.878;2022-10-16T07:04:53;5.07;;;3.50;;
60088;SDS011;45961;53.574;55.878;2022-10-16T07:05:54;5.78;;;3.50;;
60088;SDS011;45961;53.574;55.878;2022-10-16T07:06:56;5.40;;;3.20;;
60088;SDS011;45961;53.574;55.878;2022-10-16T07:07:57;3.38;;;3.08;;
60088;SDS011;45961;53.574;55.878;2022-10-16T07:08:58;4.03;;;3.63;;
60088;SDS011;45961;53.574;55.878;2022-10-16T07:10:05;4.10;;;3.35;;
60088;SDS011;45961;53.574;55.878;2022-10-16T07:11:07;4.93;;;4.15;;
60088;SDS011;45961;53.574;55.878;2022-10-16T07:12:09;4.20;;;3.80;;
60088;SDS011;45961;53.574;55.878;2022-10-16T07:13:10;4.00;;;3.60;;
60088;SDS011;45961;53.574;55.878;2022-10-16T07:14:18;7.63;;;3.97;;
60088;SDS011;45961;53.574;55.878;2022-10-16T07:15:24;9.13;;;4.57;;
60088;SDS011;45961;53.574;55.878;2022-10-16T07:16:26;8.43;;;4.00;;
60088;SDS011;45961;53.574;55.878;2022-10-16T07:17:29;5.65;;;3.50;;
60088;SDS011;45961;53.574;55.878;2022-10-16T07:18:32;3.88;;;3.13;;
60088;SDS011;45961;53.574;55.878;2022-10-16T07:19:36;5.53;;;4.13;;
60088;SDS011;45961;53.574;55.878;2022-10-16T07:20:38;4.53;;;3.13;;
60088;SDS011;45961;53.574;55.878;2022-10-16T07:21:39;4.30;;;3.42;;
60088;SDS011;45961;53.574;55.878;2022-10-16T07:22:40;11.35;;;4.13;;
60088;SDS011;45961;53.574;55.878;2022-10-16T07:23:41;7.38;;;3.35;;
60088;SDS011;45961;53.574;55.878;2022-10-16T07:24:43;6.32;;;3.25;;
60088;SDS011;45961;53.574;55.878;2022-10-16T07:25:52;5.65;;;3.72;;
60088;SDS011;45961;53.574;55.878;2022-10-16T07:26:54;4.25;;;2.88;;
60088;SDS011;45961;53.574;55.878;2022-10-16T07:27:55;4.30;;;3.33;;
60088;SDS011;45961;53.574;55.878;2022-10-16T07:28:57;3.33;;;2.95;;
60088;SDS011;45961;53.574;55.878;2022-10-16T07:30:20;4.47;;;2.92;;
60088;SDS011;45961;53.574;55.878;2022-10-16T07:31:21;5.95;;;3.28;;
60088;SDS011;45961;53.574;55.878;2022-10-16T07:32:23;4.72;;;3.25;;
60088;SDS011;45961;53.574;55.878;2022-10-16T07:33:26;7.78;;;3.25;;
60088;SDS011;45961;53.574;55.878;2022-10-16T07:34:29;5.57;;;2.97;;
60088;SDS011;45961;53.574;55.878;2022-10-16T07:35:33;6.60;;;3.28;;
60088;SDS011;45961;53.574;55.878;2022-10-16T07:36:34;4.72;;;3.17;;
60088;SDS011;45961;53.574;55.878;2022-10-16T07:37:35;4.07;;;3.08;;
60088;SDS011;45961;53.574;55.878;2022-10-16T07:38:36;4.22;;;2.80;;
60088;SDS011;45961;53.574;55.878;2022-10-16T07:39:38;3.72;;;2.70;;
60088;SDS011;45961;53.574;55.878;2022-10-16T07:40:39;3.08;;;2.67;;
60088;SDS011;45961;53.574;55.878;2022-10-16T07:41:40;3.78;;;3.00;;
60088;SDS011;45961;53.574;55.878;2022-10-16T07:42:41;6.55;;;3.78;;
60088;SDS011;45961;53.574;55.878;2022-10-16T07:43:45;5.38;;;3.42;;
60088;SDS011;45961;53.574;55.878;2022-10-16T07:44:47;3.90;;;3.10;;
60088;SDS011;45961;53.574;55.878;2022-10-16T07:45:48;3.10;;;2.80;;
60088;SDS011;45961;53.574;55.878;2022-10-16T07:46:50;3.33;;;2.80;;
60088;SDS011;45961;53.574;55.878;2022-10-16T07:47:51;3.03;;;2.65;;
60088;SDS011;45961;53.574;55.878;2022-10-16T07:48:53;3.13;;;2.78;;
60088;SDS011;45961;53.574;55.878;2022-10-16T07:49:56;3.65;;;2.88;;
60088;SDS011;45961;53.574;55.878;2022-10-16T07:51:01;3.38;;;2.80;;
60088;SDS011;45961;53.574;55.878;2022-10-16T07:52:06;3.53;;;2.92;;
60088;SDS011;45961;53.574;55.878;2022-10-16T07:53:07;3.33;;;2.63;;
60088;SDS011;45961;53.574;55.878;2022-10-16T07:55:29;4.22;;;2.80;;
60088;SDS011;45961;53.574;55.878;2022-10-16T07:56:30;4.38;;;2.80;;
60088;SDS011;45961;53.574;55.878;2022-10-16T07:57:33;6.25;;;2.88;;
60088;SDS011;45961;53.574;55.878;2022-10-16T07:58:34;5.35;;;3.15;;
60088;SDS011;45961;53.574;55.878;2022-10-16T07:59:37;3.75;;;3.03;;
60088;SDS011;45961;53.574;55.878;2022-10-16T08:00:38;3.38;;;3.03;;
60088;SDS011;45961;53.574;55.878;2022-10-16T08:01:59;3.20;;;2.78;;
60088;SDS011;45961;53.574;55.878;2022-10-16T08:03:03;4.15;;;2.88;;
60088;SDS011;45961;53.574;55.878;2022-10-16T08:05:05;4.65;;;2.40;;
60088;SDS011;45961;53.574;55.878;2022-10-16T08:06:07;3.58;;;2.70;;
60088;SDS011;45961;53.574;55.878;2022-10-16T08:07:08;3.10;;;2.80;;
60088;SDS011;45961;53.574;55.878;2022-10-16T08:08:16;3.33;;;2.55;;
60088;SDS011;45961;53.574;55.878;2022-10-16T08:09:17;4.13;;;3.30;;
60088;SDS011;45961;53.574;55.878;2022-10-16T08:10:19;3.90;;;2.75;;
60088;SDS011;45961;53.574;55.878;2022-10-16T08:11:21;3.75;;;2.40;;
60088;SDS011;45961;53.574;55.878;2022-10-16T08:12:22;3.88;;;2.78;;
60088;SDS011;45961;53.574;55.878;2022-10-16T08:13:23;3.95;;;2.65;;
60088;SDS011;45961;53.574;55.878;2022-10-16T08:14:24;3.78;;;2.83;;
60088;SDS011;45961;53.574;55.878;2022-10-16T08:15:25;4.68;;;2.58;;
60088;SDS011;45961;53.574;55.878;2022-10-16T08:16:26;3.25;;;2.60;;
60088;SDS011;45961;53.574;55.878;2022-10-16T08:17:27;3.92;;;2.75;;
60088;SDS011;45961;53.574;55.878;2022-10-16T08:18:28;3.65;;;3.13;;
60088;SDS011;45961;53.574;55.878;2022-10-16T08:19:32;5.60;;;3.30;;
60088;SDS011;45961;53.574;55.878;2022-10-16T08:20:35;10.13;;;3.92;;
60088;SDS011;45961;53.574;55.878;2022-10-16T08:21:39;5.78;;;4.05;;
60088;SDS011;45961;53.574;55.878;2022-10-16T08:22:40;5.50;;;3.45;;
60088;SDS011;45961;53.574;55.878;2022-10-16T08:23:41;3.70;;;3.40;;
60088;SDS011;45961;53.574;55.878;2022-10-16T08:24:47;4.97;;;3.65;;
60088;SDS011;45961;53.574;55.878;2022-10-16T08:25:48;4.22;;;3.47;;
60088;SDS011;45961;53.574;55.878;2022-10-16T08:26:55;5.72;;;4.20;;
60088;SDS011;45961;53.574;55.878;2022-10-16T08:27:56;4.40;;;3.88;;
60088;SDS011;45961;53.574;55.878;2022-10-16T08:28:57;5.30;;;4.30;;
60088;SDS011;45961;53.574;55.878;2022-10-16T08:29:59;5.00;;;4.00;;
60088;SDS011;45961;53.574;55.878;2022-10-16T08:31:12;5.97;;;4.40;;
60088;SDS011;45961;53.574;55.878;2022-10-16T08:32:24;5.38;;;3.55;;
60088;SDS011;45961;53.574;55.878;2022-10-16T08:33:25;5.10;;;3.90;;
60088;SDS011;45961;53.574;55.878;2022-10-16T08:34:26;6.68;;;5.18;;
60088;SDS011;45961;53.574;55.878;2022-10-16T08:35:27;4.97;;;3.63;;
60088;SDS011;45961;53.574;55.878;2022-10-16T08:36:28;5.85;;;4.40;;
60088;SDS011;45961;53.574;55.878;2022-10-16T08:37:32;4.80;;;4.00;;
60088;SDS011;45961;53.574;55.878;2022-10-16T08:38:33;4.78;;;4.25;;
60088;SDS011;45961;53.574;55.878;2022-10-16T08:39:34;4.82;;;4.03;;
60088;SDS011;45961;53.574;55.878;2022-10-16T08:40:36;6.05;;;4.68;;
60088;SDS011;45961;53.574;55.878;2022-10-16T08:44:36;5.18;;;4.13;;
60088;SDS011;45961;53.574;55.878;2022-10-16T08:45:49;6.40;;;3.80;;
60088;SDS011;45961;53.574;55.878;2022-10-16T08:47:13;4.68;;;4.18;;
60088;SDS011;45961;53.574;55.878;2022-10-16T08:49:05;4.40;;;3.20;;
60088;SDS011;45961;53.574;55.878;2022-10-16T08:49:56;4.40;;;3.80;;
60088;SDS011;45961;53.574;55.878;2022-10-16T08:51:00;4.28;;;3.72;;
60088;SDS011;45961;53.574;55.878;2022-10-16T08:52:04;5.18;;;3.50;;
60088;SDS011;45961;53.574;55.878;2022-10-16T08:53:15;4.78;;;3.78;;
60088;SDS011;45961;53.574;55.878;2022-10-16T08:54:29;4.60;;;3.22;;
60088;SDS011;45961;53.574;55.878;2022-10-16T08:55:51;3.40;;;3.10;;
60088;SDS011;45961;53.574;55.878;2022-10-16T08:56:54;5.00;;;3.95;;
60088;SDS011;45961;53.574;55.878;2022-10-16T08:58:00;4.18;;;3.65;;
60088;SDS011;45961;53.574;55.878;2022-10-16T08:59:01;3.60;;;3.20;;
60088;SDS011;45961;53.574;55.878;2022-10-16T09:00:13;4.65;;;3.88;;
60088;SDS011;45961;53.574;55.878;2022-10-16T09:01:16;4.72;;;3.63;;
60088;SDS011;45961;53.574;55.878;2022-10-16T09:12:04;3.90;;;3.47;;
60088;SDS011;45961;53.574;55.878;2022-10-16T09:13:22;4.85;;;3.22;;
60088;SDS011;45961;53.574;55.878;2022-10-16T09:14:32;4.20;;;3.22;;
60088;SDS011;45961;53.574;55.878;2022-10-16T09:16:34;6.07;;;3.20;;
60088;SDS011;45961;53.574;55.878;2022-10-16T09:18:52;4.25;;;3.55;;
60088;SDS011;45961;53.574;55.878;2022-10-16T09:21:20;11.82;;;7.32;;
60088;SDS011;45961;53.574;55.878;2022-10-16T09:22:26;8.43;;;5.53;;
60088;SDS011;45961;53.574;55.878;2022-10-16T09:23:33;6.43;;;4.68;;
60088;SDS011;45961;53.574;55.878;2022-10-16T09:24:36;6.78;;;4.72;;
60088;SDS011;45961;53.574;55.878;2022-10-16T09:25:38;7.38;;;4.78;;
60088;SDS011;45961;53.574;55.878;2022-10-16T09:26:42;6.80;;;4.95;;
60088;SDS011;45961;53.574;55.878;2022-10-16T09:27:44;6.65;;;5.20;;
60088;SDS011;45961;53.574;55.878;2022-10-16T09:28:48;6.53;;;4.95;;
60088;SDS011;45961;53.574;55.878;2022-10-16T09:29:49;6.68;;;5.00;;
60088;SDS011;45961;53.574;55.878;2022-10-16T09:30:50;9.23;;;5.68;;
60088;SDS011;45961;53.574;55.878;2022-10-16T09:32:12;6.43;;;4.70;;
60088;SDS011;45961;53.574;55.878;2022-10-16T09:33:18;5.57;;;4.30;;
60088;SDS011;45961;53.574;55.878;2022-10-16T09:34:29;4.80;;;4.20;;
60088;SDS011;45961;53.574;55.878;2022-10-16T09:35:36;5.20;;;3.90;;
60088;SDS011;45961;53.574;55.878;2022-10-16T09:36:43;3.97;;;3.45;;
60088;SDS011;45961;53.574;55.878;2022-10-16T09:37:48;3.88;;;2.95;;
60088;SDS011;45961;53.574;55.878;2022-10-16T09:39:01;4.93;;;3.65;;
60088;SDS011;45961;53.574;55.878;2022-10-16T09:40:05;4.38;;;2.80;;
60088;SDS011;45961;53.574;55.878;2022-10-16T09:41:13;3.40;;;3.03;;
60088;SDS011;45961;53.574;55.878;2022-10-16T09:42:24;3.05;;;2.78;;
60088;SDS011;45961;53.574;55.878;2022-10-16T09:43:34;3.55;;;3.00;;
60088;SDS011;45961;53.574;55.878;2022-10-16T09:44:41;6.13;;;2.83;;
60088;SDS011;45961;53.574;55.878;2022-10-16T09:45:42;3.05;;;2.60;;
60088;SDS011;45961;53.574;55.878;2022-10-16T09:46:46;3.60;;;2.80;;
60088;SDS011;45961;53.574;55.878;2022-10-16T09:47:47;4.38;;;2.50;;
60088;SDS011;45961;53.574;55.878;2022-10-16T09:48:49;3.17;;;2.70;;
60088;SDS011;45961;53.574;55.878;2022-10-16T09:50:22;2.97;;;2.40;;
60088;SDS011;45961;53.574;55.878;2022-10-16T09:51:26;3.30;;;2.45;;
60088;SDS011;45961;53.574;55.878;2022-10-16T09:52:37;3.17;;;2.25;;
60088;SDS011;45961;53.574;55.878;2022-10-16T09:53:44;2.92;;;2.35;;
60088;SDS011;45961;53.574;55.878;2022-10-16T09:55:52;2.75;;;2.08;;
60088;SDS011;45961;53.574;55.878;2022-10-16T09:57:03;3.90;;;1.90;;
60088;SDS011;45961;53.574;55.878;2022-10-16T09:58:11;2.38;;;2.00;;
60088;SDS011;45961;53.574;55.878;2022-10-16T10:00:16;3.17;;;2.13;;
60088;SDS011;45961;53.574;55.878;2022-10-16T10:01:19;2.50;;;2.30;;
60088;SDS011;45961;53.574;55.878;2022-10-16T10:02:31;3.33;;;2.70;;
60088;SDS011;45961;53.574;55.878;2022-10-16T10:04:41;4.72;;;3.10;;
60088;SDS011;45961;53.574;55.878;2022-10-16T10:05:52;4.47;;;3.58;;
60088;SDS011;45961;53.574;55.878;2022-10-16T10:06:53;5.35;;;3.78;;
60088;SDS011;45961;53.574;55.878;2022-10-16T10:07:59;5.15;;;3.70;;
60088;SDS011;45961;53.574;55.878;2022-10-16T10:09:37;4.32;;;3.10;;
60088;SDS011;45961;53.574;55.878;2022-10-16T10:10:42;8.45;;;4.95;;
60088;SDS011;45961;53.574;55.878;2022-10-16T10:12:47;7.60;;;5.65;;
60088;SDS011;45961;53.574;55.878;2022-10-16T10:13:48;14.55;;;9.48;;
60088;SDS011;45961;53.574;55.878;2022-10-16T10:15:55;12.27;;;7.57;;
60088;SDS011;45961;53.574;55.878;2022-10-16T10:17:09;9.85;;;6.95;;
60088;SDS011;45961;53.574;55.878;2022-10-16T10:18:18;18.27;;;15.02;;
60088;SDS011;45961;53.574;55.878;2022-10-16T10:19:23;27.15;;;23.50;;
60088;SDS011;45961;53.574;55.878;2022-10-16T10:21:37;13.65;;;11.20;;
60088;SDS011;45961;53.574;55.878;2022-10-16T10:22:40;63.83;;;45.88;;
60088;SDS011;45961;53.574;55.878;2022-10-16T10:23:54;81.43;;;52.22;;
60088;SDS011;45961;53.574;55.878;2022-10-16T10:25:04;27.20;;;18.08;;
60088;SDS011;45961;53.574;55.878;2022-10-16T10:26:16;12.98;;;8.68;;
60088;SDS011;45961;53.574;55.878;2022-10-16T10:27:22;12.68;;;8.95;;
60088;SDS011;45961;53.574;55.878;2022-10-16T10:30:49;7.30;;;5.30;;
60088;SDS011;45961;53.574;55.878;2022-10-16T10:31:39;8.65;;;7.38;;
60088;SDS011;45961;53.574;55.878;2022-10-16T10:36:41;1.67;;;1.55;;
60088;SDS011;45961;53.574;55.878;2022-10-16T10:37:51;3.10;;;2.10;;
60088;SDS011;45961;53.574;55.878;2022-10-16T10:38:57;12.60;;;11.32;;
60088;SDS011;45961;53.574;55.878;2022-10-16T10:40:07;2.38;;;2.17;;
60088;SDS011;45961;53.574;55.878;2022-10-16T10:42:32;2.03;;;1.83;;
60088;SDS011;45961;53.574;55.878;2022-10-16T10:43:39;1.85;;;1.42;;
60088;SDS011;45961;53.574;55.878;2022-10-16T10:51:36;4.75;;;4.35;;
60088;SDS011;45961;53.574;55.878;2022-10-16T10:55:40;27.92;;;20.67;;
60088;SDS011;45961;53.574;55.878;2022-10-16T11:00:51;2.60;;;2.40;;
60088;SDS011;45961;53.574;55.878;2022-10-16T11:03:25;20.33;;;15.80;;
60088;SDS011;45961;53.574;55.878;2022-10-16T11:06:20;7.05;;;5.03;;
60088;SDS011;45961;53.574;55.878;2022-10-16T11:07:28;3.75;;;3.10;;
60088;SDS011;45961;53.574;55.878;2022-10-16T11:08:35;2.00;;;1.80;;
60088;SDS011;45961;53.574;55.878;2022-10-16T11:10:16;8.25;;;2.85;;
60088;SDS011;45961;53.574;55.878;2022-10-16T11:12:54;3.47;;;2.15;;
60088;SDS011;45961;53.574;55.878;2022-10-16T11:16:18;2.03;;;1.13;;
60088;SDS011;45961;53.574;55.878;2022-10-16T11:17:26;1.63;;;0.77;;
60088;SDS011;45961;53.574;55.878;2022-10-16T11:18:33;1.10;;;1.00;;
60088;SDS011;45961;53.574;55.878;2022-10-16T11:19:49;2.05;;;1.85;;
60088;SDS011;45961;53.574;55.878;2022-10-16T11:21:11;2.80;;;1.42;;
60088;SDS011;45961;53.574;55.878;2022-10-16T11:22:32;12.00;;;9.73;;
60088;SDS011;45961;53.574;55.878;2022-10-16T11:23:43;3.67;;;3.10;;
60088;SDS011;45961;53.574;55.878;2022-10-16T11:25:12;5.22;;;3.70;;
60088;SDS011;45961;53.574;55.878;2022-10-16T11:26:21;2.00;;;1.90;;
60088;SDS011;45961;53.574;55.878;2022-10-16T11:27:31;3.75;;;3.38;;
60088;SDS011;45961;53.574;55.878;2022-10-16T11:31:32;6.03;;;4.28;;
60088;SDS011;45961;53.574;55.878;2022-10-16T11:33:02;7.07;;;4.68;;
60088;SDS011;45961;53.574;55.878;2022-10-16T11:34:28;13.38;;;8.93;;
60088;SDS011;45961;53.574;55.878;2022-10-16T11:35:46;16.42;;;12.82;;
60088;SDS011;45961;53.574;55.878;2022-10-16T11:36:57;15.85;;;12.57;;
60088;SDS011;45961;53.574;55.878;2022-10-16T11:38:15;11.70;;;8.20;;
60088;SDS011;45961;53.574;55.878;2022-10-16T11:39:30;11.70;;;9.20;;
60088;SDS011;45961;53.574;55.878;2022-10-16T11:40:32;12.48;;;9.60;;
60088;SDS011;45961;53.574;55.878;2022-10-16T11:41:42;21.88;;;16.98;;
60088;SDS011;45961;53.574;55.878;2022-10-16T11:42:50;56.08;;;33.60;;
60088;SDS011;45961;53.574;55.878;2022-10-16T11:44:02;146.50;;;98.30;;
60088;SDS011;45961;53.574;55.878;2022-10-16T11:45:18;23.80;;;18.98;;
60088;SDS011;45961;53.574;55.878;2022-10-16T11:46:40;30.95;;;26.20;;
60088;SDS011;45961;53.574;55.878;2022-10-16T11:47:54;35.85;;;27.08;;
60088;SDS011;45961;53.574;55.878;2022-10-16T11:49:20;68.25;;;44.47;;
60088;SDS011;45961;53.574;55.878;2022-10-16T11:51:38;55.78;;;41.30;;
60088;SDS011;45961;53.574;55.878;2022-10-16T11:53:57;22.00;;;16.83;;
60088;SDS011;45961;53.574;55.878;2022-10-16T11:56:11;86.50;;;53.60;;
60088;SDS011;45961;53.574;55.878;2022-10-16T11:57:18;81.40;;;52.08;;
60088;SDS011;45961;53.574;55.878;2022-10-16T11:58:50;59.97;;;38.63;;
60088;SDS011;45961;53.574;55.878;2022-10-16T12:00:01;49.63;;;32.92;;
60088;SDS011;45961;53.574;55.878;2022-10-16T12:02:37;78.13;;;54.50;;
60088;SDS011;45961;53.574;55.878;2022-10-16T12:06:49;34.70;;;23.83;;
60088;SDS011;45961;53.574;55.878;2022-10-16T12:07:59;33.58;;;23.83;;
60088;SDS011;45961;53.574;55.878;2022-10-16T12:09:09;13.30;;;9.90;;
60088;SDS011;45961;53.574;55.878;2022-10-16T12:10:27;24.25;;;18.00;;
60088;SDS011;45961;53.574;55.878;2022-10-16T12:12:37;9.07;;;7.90;;
60088;SDS011;45961;53.574;55.878;2022-10-16T12:13:40;8.80;;;6.00;;
60088;SDS011;45961;53.574;55.878;2022-10-16T12:14:42;18.50;;;14.70;;
60088;SDS011;45961;53.574;55.878;2022-10-16T12:15:43;13.73;;;11.15;;
60088;SDS011;45961;53.574;55.878;2022-10-16T12:16:53;6.32;;;5.55;;
60088;SDS011;45961;53.574;55.878;2022-10-16T12:18:02;5.90;;;3.00;;
60088;SDS011;45961;53.574;55.878;2022-10-16T12:19:13;3.47;;;3.20;;
60088;SDS011;45961;53.574;55.878;2022-10-16T12:20:32;3.45;;;3.15;;
60088;SDS011;45961;53.574;55.878;2022-10-16T12:21:39;6.57;;;5.63;;
60088;SDS011;45961;53.574;55.878;2022-10-16T12:22:50;10.73;;;7.53;;
60088;SDS011;45961;53.574;55.878;2022-10-16T12:24:00;8.88;;;7.40;;